createdAt,value
2024-01-16T00:01:36.933Z,75.23
2024-01-16T00:04:03.732Z,75.27
2024-01-16T00:06:30.499Z,75.36
2024-01-16T00:08:57.122Z,75.31
2024-01-16T00:11:23.762Z,75.21
2024-01-16T00:13:50.467Z,75.23
2024-01-16T00:16:17.092Z,75.21
2024-01-16T00:18:43.791Z,75.25
2024-01-16T00:21:10.492Z,75.29
2024-01-16T00:23:37.187Z,75.23
2024-01-16T00:26:03.928Z,75.13
2024-01-16T00:28:33.497Z,75.12
2024-01-16T00:31:00.990Z,75.19
2024-01-16T00:33:28.676Z,75.25
2024-01-16T00:35:55.521Z,75.33
2024-01-16T00:38:23.358Z,75.36
2024-01-16T00:40:50.169Z,75.43
2024-01-16T00:43:16.790Z,75.53
2024-01-16T00:45:43.458Z,75.21
2024-01-16T00:48:11.708Z,75.25
2024-01-16T00:50:38.794Z,75.30
2024-01-16T00:53:05.591Z,75.34
2024-01-16T00:55:32.221Z,75.23
2024-01-16T00:57:58.841Z,75.24
2024-01-16T01:00:26.004Z,75.20
2024-01-16T01:02:52.721Z,75.14
2024-01-16T01:05:19.913Z,75.21
2024-01-16T01:07:46.610Z,75.17
2024-01-16T01:10:13.588Z,75.15
2024-01-16T01:12:40.208Z,75.24
2024-01-16T01:15:07.491Z,75.13
2024-01-16T01:17:34.403Z,75.05
2024-01-16T01:20:01.076Z,75.04
2024-01-16T01:22:27.914Z,74.90
2024-01-16T01:24:54.514Z,75.00
2024-01-16T01:27:21.122Z,75.09
2024-01-16T01:29:48.091Z,74.98
2024-01-16T01:32:14.856Z,75.14
2024-01-16T01:34:44.336Z,75.22
2024-01-16T01:37:11.015Z,75.07
2024-01-16T01:39:37.626Z,75.11
2024-01-16T01:42:05.358Z,74.83
2024-01-16T01:44:32.061Z,74.83
2024-01-16T01:46:59.995Z,74.98
2024-01-16T01:49:27.647Z,75.24
2024-01-16T01:51:55.521Z,75.11
2024-01-16T01:54:23.790Z,75.23
2024-01-16T01:56:50.810Z,75.09
2024-01-16T01:59:21.023Z,75.15
2024-01-16T02:01:49.736Z,75.09
2024-01-16T02:04:18.200Z,75.11
2024-01-16T02:06:45.545Z,74.84
2024-01-16T02:09:14.431Z,74.78
2024-01-16T02:11:44.602Z,74.92
2024-01-16T02:14:11.889Z,74.87
2024-01-16T02:16:45.691Z,74.77
2024-01-16T02:19:12.430Z,74.72
2024-01-16T02:21:52.301Z,74.83
2024-01-16T02:24:20.424Z,74.78
2024-01-16T02:26:47.321Z,74.82
2024-01-16T02:29:14.499Z,74.74
2024-01-16T02:31:41.407Z,74.75
2024-01-16T02:34:08.137Z,74.75
2024-01-16T02:36:34.888Z,74.84
2024-01-16T02:39:01.755Z,74.70
2024-01-16T02:41:28.445Z,74.72
2024-01-16T02:43:55.134Z,74.67
2024-01-16T02:46:21.750Z,74.75
2024-01-16T02:48:48.622Z,74.71
2024-01-16T02:51:16.837Z,74.55
2024-01-16T02:53:43.828Z,74.32
2024-01-16T02:56:10.776Z,74.49
2024-01-16T02:58:37.770Z,74.44
2024-01-16T03:01:04.530Z,74.36
2024-01-16T03:03:31.181Z,74.29
2024-01-16T03:05:58.019Z,74.12
2024-01-16T03:08:24.814Z,74.19
2024-01-16T03:10:51.428Z,74.26
2024-01-16T03:13:18.064Z,74.21
2024-01-16T03:19:10.201Z,74.42
2024-01-16T03:21:36.849Z,74.30
2024-01-16T03:24:03.497Z,74.21
2024-01-16T03:26:30.219Z,74.20
2024-01-16T03:28:56.901Z,74.18
2024-01-16T03:31:23.659Z,74.30
2024-01-16T03:33:50.728Z,74.23
2024-01-16T03:36:17.645Z,74.25
2024-01-16T03:38:44.759Z,74.22
2024-01-16T03:41:15.049Z,74.22
2024-01-16T03:43:41.990Z,74.20
2024-01-16T03:46:08.904Z,74.29
2024-01-16T03:48:35.636Z,74.20
2024-01-16T03:51:03.738Z,74.09
2024-01-16T03:53:30.420Z,73.99
2024-01-16T03:55:57.185Z,74.10
2024-01-16T03:58:24.227Z,74.11
2024-01-16T04:00:52.099Z,74.13
2024-01-16T04:03:18.840Z,74.02
2024-01-16T04:05:45.522Z,74.19
2024-01-16T04:08:13.721Z,73.96
2024-01-16T04:10:40.396Z,73.89
2024-01-16T04:13:07.480Z,73.94
2024-01-16T04:15:34.250Z,74.09
2024-01-16T04:18:01.308Z,73.98
2024-01-16T04:20:28.013Z,73.84
2024-01-16T04:22:54.837Z,73.97
2024-01-16T04:25:21.445Z,73.66
2024-01-16T04:27:48.074Z,73.79
2024-01-16T04:30:14.969Z,73.82
2024-01-16T04:32:42.055Z,73.67
2024-01-16T04:35:09.845Z,73.62
2024-01-16T04:37:36.499Z,73.74
2024-01-16T04:40:03.665Z,73.87
2024-01-16T04:42:30.384Z,73.79
2024-01-16T04:44:57.076Z,73.66
2024-01-16T04:47:23.813Z,73.61
2024-01-16T04:49:50.568Z,73.63
2024-01-16T04:52:17.201Z,73.57
2024-01-16T04:54:46.467Z,73.65
2024-01-16T04:57:13.158Z,73.42
2024-01-16T04:59:39.824Z,73.42
2024-01-16T05:02:06.475Z,73.42
2024-01-16T05:04:33.102Z,73.54
2024-01-16T05:06:59.807Z,73.39
2024-01-16T05:09:26.477Z,73.53
2024-01-16T05:11:53.222Z,73.49
2024-01-16T05:14:20.697Z,73.40
2024-01-16T05:16:47.420Z,73.57
2024-01-16T05:19:14.055Z,73.43
2024-01-16T05:21:42.237Z,73.26
2024-01-16T05:24:09.763Z,73.30
2024-01-16T05:26:36.620Z,73.30
2024-01-16T05:29:03.284Z,73.35
2024-01-16T05:31:29.918Z,73.41
2024-01-16T05:33:56.572Z,73.37
2024-01-16T05:36:23.340Z,73.41
2024-01-16T05:38:51.628Z,73.26
2024-01-16T05:41:18.541Z,73.26
2024-01-16T05:43:45.170Z,73.06
2024-01-16T05:46:11.857Z,73.10
2024-01-16T05:48:38.671Z,73.07
2024-01-16T05:51:06.173Z,73.11
2024-01-16T05:53:32.869Z,73.24
2024-01-16T05:55:59.543Z,73.35
2024-01-16T05:58:26.175Z,73.33
2024-01-16T06:00:52.842Z,73.30
2024-01-16T06:03:19.874Z,73.20
2024-01-16T06:05:46.620Z,73.07
2024-01-16T06:08:13.614Z,73.16
2024-01-16T06:10:40.244Z,73.09
2024-01-16T06:13:06.858Z,73.14
2024-01-16T06:15:34.246Z,73.06
2024-01-16T06:18:01.052Z,73.16
2024-01-16T06:20:29.842Z,73.18
2024-01-16T06:22:56.470Z,73.22
2024-01-16T06:25:23.288Z,73.29
2024-01-16T06:27:49.923Z,73.27
2024-01-16T06:30:16.703Z,73.32
2024-01-16T06:32:43.667Z,73.25
2024-01-16T06:35:10.905Z,73.22
2024-01-16T06:37:37.788Z,73.00
2024-01-16T06:40:05.439Z,73.16
2024-01-16T06:42:32.593Z,73.30
2024-01-16T06:44:59.306Z,73.10
2024-01-16T06:47:26.143Z,73.21
2024-01-16T06:49:52.886Z,73.19
2024-01-16T06:52:19.504Z,73.21
2024-01-16T06:54:46.162Z,73.32
2024-01-16T06:57:12.912Z,73.37
2024-01-16T06:59:39.541Z,73.20
2024-01-16T07:02:06.976Z,73.28
2024-01-16T07:04:34.090Z,73.18
2024-01-16T07:07:00.754Z,73.14
2024-01-16T07:09:28.440Z,72.99
2024-01-16T07:11:55.309Z,72.99
2024-01-16T07:14:22.286Z,73.15
2024-01-16T07:16:49.199Z,73.15
2024-01-16T07:19:16.389Z,73.20
2024-01-16T07:21:43.775Z,73.00
2024-01-16T07:24:10.451Z,73.13
2024-01-16T07:26:37.182Z,73.29
2024-01-16T07:29:03.850Z,73.29
2024-01-16T07:31:30.768Z,73.32
2024-01-16T07:33:57.554Z,73.37
2024-01-16T07:36:24.391Z,73.32
2024-01-16T07:38:51.142Z,73.52
2024-01-16T07:41:17.835Z,73.67
2024-01-16T07:43:46.705Z,73.61
2024-01-16T07:46:14.256Z,73.44
2024-01-16T07:48:41.149Z,73.62
2024-01-16T07:51:07.808Z,74.20
2024-01-16T07:53:34.497Z,74.54
2024-01-16T07:56:01.206Z,74.62
2024-01-16T07:58:27.832Z,74.90
2024-01-16T08:00:54.508Z,75.10
2024-01-16T08:03:21.216Z,75.44
2024-01-16T08:05:48.034Z,75.62
2024-01-16T08:08:14.763Z,75.22
2024-01-16T08:10:44.348Z,74.36
2024-01-16T08:13:11.180Z,73.90
2024-01-16T08:15:38.102Z,73.91
2024-01-16T08:18:05.297Z,73.43
2024-01-16T08:20:32.175Z,73.41
2024-01-16T08:22:59.280Z,73.51
2024-01-16T08:25:26.067Z,73.28
2024-01-16T08:27:52.955Z,72.46
2024-01-16T08:30:19.841Z,71.65
2024-01-16T08:32:46.614Z,71.08
2024-01-16T08:35:13.573Z,70.83
2024-01-16T08:37:40.327Z,70.41
2024-01-16T08:40:07.985Z,70.31
2024-01-16T08:42:34.647Z,70.40
2024-01-16T08:45:01.386Z,70.29
2024-01-16T08:47:28.201Z,70.49
2024-01-16T08:49:54.946Z,71.08
2024-01-16T08:52:21.661Z,71.07
2024-01-16T08:54:49.484Z,71.01
2024-01-16T08:57:18.199Z,70.97
2024-01-16T08:59:56.785Z,69.74
2024-01-16T09:02:25.593Z,69.53
2024-01-16T09:04:52.444Z,69.30
2024-01-16T09:07:19.962Z,69.07
2024-01-16T09:09:46.813Z,69.07
2024-01-16T09:12:13.440Z,69.41
2024-01-16T09:14:40.221Z,69.77
2024-01-16T09:17:07.754Z,69.47
2024-01-16T09:19:35.231Z,69.38
2024-01-16T09:22:02.181Z,68.73
2024-01-16T09:24:28.852Z,68.61
2024-01-16T09:26:55.626Z,68.32
2024-01-16T09:29:23.748Z,67.92
2024-01-16T09:31:50.605Z,67.27
2024-01-16T09:34:18.407Z,66.74
2024-01-16T09:36:45.159Z,66.71
2024-01-16T09:39:19.529Z,66.77
2024-01-16T09:41:46.840Z,66.91
2024-01-16T09:44:13.754Z,67.03
2024-01-16T09:46:47.336Z,67.17
2024-01-16T09:49:16.217Z,67.40
2024-01-16T09:51:44.411Z,67.98
2024-01-16T09:54:11.149Z,68.09
2024-01-16T09:56:46.648Z,68.24
2024-01-16T09:59:19.466Z,68.34
2024-01-16T10:01:46.143Z,68.40
2024-01-16T10:04:13.186Z,68.13
2024-01-16T10:06:40.902Z,68.34
2024-01-16T10:09:07.696Z,68.65
2024-01-16T10:11:35.364Z,68.62
2024-01-16T10:14:03.416Z,68.64
2024-01-16T10:17:03.883Z,68.53
2024-01-16T10:19:43.076Z,68.85
2024-01-16T10:22:23.637Z,69.12
2024-01-16T10:25:09.896Z,69.28
2024-01-16T10:27:37.761Z,68.94
2024-01-16T10:30:05.445Z,68.71
2024-01-16T10:32:37.727Z,68.88
2024-01-16T10:35:10.046Z,68.95
2024-01-16T10:37:52.802Z,68.98
2024-01-16T10:40:23.372Z,69.62
2024-01-16T10:43:20.801Z,70.08
2024-01-16T10:45:47.491Z,69.80
2024-01-16T10:48:16.572Z,70.12
2024-01-16T10:50:43.419Z,69.97
2024-01-16T10:53:10.503Z,69.87
2024-01-16T10:56:03.888Z,69.87
2024-01-16T10:58:32.873Z,69.53
2024-01-16T11:01:06.701Z,69.22
2024-01-16T11:03:44.533Z,69.10
2024-01-16T11:06:12.447Z,68.92
2024-01-16T11:08:40.662Z,68.87
2024-01-16T11:11:09.357Z,68.53
2024-01-16T11:13:37.580Z,67.89
2024-01-16T11:16:08.656Z,67.61
2024-01-16T11:18:38.610Z,67.53
2024-01-16T11:21:11.012Z,67.61
2024-01-16T11:23:40.291Z,67.44
2024-01-16T11:26:26.460Z,67.04
2024-01-16T11:28:54.881Z,66.35
2024-01-16T11:31:31.632Z,65.76
2024-01-16T11:34:00.804Z,65.82
2024-01-16T11:36:57.342Z,65.88
2024-01-16T11:39:27.481Z,65.29
2024-01-16T11:41:59.113Z,65.55
2024-01-16T11:44:55.739Z,65.72
2024-01-16T11:47:24.458Z,66.36
2024-01-16T11:49:53.174Z,66.53
2024-01-16T11:52:44.804Z,66.00
2024-01-16T11:55:28.678Z,65.59
2024-01-16T11:58:17.179Z,65.51
2024-01-16T12:00:47.042Z,65.37
2024-01-16T12:03:28.674Z,65.48
2024-01-16T12:06:03.939Z,65.96
2024-01-16T12:08:31.338Z,66.23
2024-01-16T12:10:59.225Z,66.12
2024-01-16T12:13:26.048Z,65.89
2024-01-16T12:16:06.455Z,65.70
2024-01-16T12:18:40.846Z,66.14
2024-01-16T12:21:16.901Z,66.40
2024-01-16T12:23:49.919Z,66.36
2024-01-16T12:26:24.038Z,67.14
2024-01-16T12:28:58.588Z,67.28
2024-01-16T12:31:28.458Z,66.76
2024-01-16T12:34:16.678Z,66.25
2024-01-16T12:36:46.880Z,65.62
2024-01-16T12:39:14.048Z,65.25
2024-01-16T12:41:44.755Z,65.18
2024-01-16T12:44:16.342Z,65.61
2024-01-16T12:46:56.028Z,66.40
2024-01-16T12:49:26.497Z,66.77
2024-01-16T12:52:22.471Z,66.86
2024-01-16T12:54:52.698Z,66.27
2024-01-16T12:57:23.141Z,65.97
2024-01-16T12:59:50.787Z,66.01
2024-01-16T13:02:25.824Z,66.32
2024-01-16T13:05:00.259Z,65.97
2024-01-16T13:07:28.366Z,65.40
2024-01-16T13:10:09.969Z,64.63
2024-01-16T13:12:37.625Z,64.48
2024-01-16T13:15:06.883Z,64.81
2024-01-16T13:17:37.187Z,64.80
2024-01-16T13:20:11.179Z,64.69
2024-01-16T13:22:44.617Z,64.62
2024-01-16T13:25:14.449Z,64.34
2024-01-16T13:27:41.636Z,64.55
2024-01-16T13:30:09.080Z,65.10
2024-01-16T13:32:38.808Z,65.39
2024-01-16T13:35:09.532Z,65.53
2024-01-16T13:37:39.504Z,65.26
2024-01-16T13:40:16.902Z,65.14
2024-01-16T13:42:43.945Z,65.07
2024-01-16T13:45:10.770Z,65.07
2024-01-16T13:47:40.790Z,64.78
2024-01-16T13:50:08.730Z,64.81
2024-01-16T13:52:36.891Z,65.26
2024-01-16T13:55:06.249Z,65.16
2024-01-16T13:57:34.121Z,64.86
2024-01-16T14:00:01.874Z,64.72
2024-01-16T14:02:39.874Z,64.35
2024-01-16T14:05:07.195Z,64.16
2024-01-16T14:07:33.986Z,63.92
2024-01-16T14:10:45.492Z,63.92
2024-01-16T14:13:13.911Z,64.00
2024-01-16T14:15:40.568Z,64.12
2024-01-16T14:18:07.422Z,64.16
2024-01-16T14:20:34.256Z,64.02
2024-01-16T14:23:00.960Z,63.99
2024-01-16T14:25:27.677Z,63.86
2024-01-16T14:27:59.188Z,63.69
2024-01-16T14:30:26.728Z,63.60
2024-01-16T14:32:54.449Z,63.66
2024-01-16T14:35:22.023Z,63.85
2024-01-16T14:37:48.801Z,63.95
2024-01-16T14:40:21.678Z,63.85
2024-01-16T14:42:49.138Z,63.88
2024-01-16T14:45:16.307Z,64.02
2024-01-16T14:47:43.702Z,64.11
2024-01-16T14:50:14.663Z,63.99
2024-01-16T14:52:41.789Z,63.99
2024-01-16T14:55:08.567Z,64.12
2024-01-16T14:57:42.930Z,64.06
2024-01-16T15:00:16.798Z,64.19
2024-01-16T15:02:43.572Z,64.23
2024-01-16T15:05:10.310Z,64.33
2024-01-16T15:07:38.570Z,64.48
2024-01-16T15:10:10.705Z,64.49
2024-01-16T15:12:37.376Z,64.57
2024-01-16T15:15:04.589Z,64.59
2024-01-16T15:17:31.524Z,64.95
2024-01-16T15:19:58.517Z,64.88
2024-01-16T15:22:25.280Z,64.97
2024-01-16T15:24:52.050Z,65.23
2024-01-16T15:27:18.817Z,65.22
2024-01-16T15:29:45.464Z,65.22
2024-01-16T15:32:12.209Z,65.33
2024-01-16T15:34:39.299Z,65.42
2024-01-16T15:37:05.960Z,65.44
2024-01-16T15:39:32.621Z,65.31
2024-01-16T15:41:59.865Z,65.39
2024-01-16T15:44:26.580Z,65.55
2024-01-16T15:46:56.122Z,65.51
2024-01-16T15:49:23.884Z,65.50
2024-01-16T15:51:52.078Z,65.48
2024-01-16T15:54:20.367Z,65.46
2024-01-16T15:56:48.944Z,65.50
2024-01-16T15:59:17.428Z,65.43
2024-01-16T16:01:44.687Z,65.51
2024-01-16T16:04:12.126Z,65.63
2024-01-16T16:06:39.950Z,65.57
2024-01-16T16:09:09.953Z,65.60
2024-01-16T16:11:42.783Z,65.29
2024-01-16T16:14:10.421Z,65.23
2024-01-16T16:16:37.962Z,65.25
2024-01-16T16:19:05.466Z,65.32
2024-01-16T16:21:32.933Z,65.43
2024-01-16T16:24:00.613Z,65.53
2024-01-16T16:26:43.885Z,65.60
2024-01-16T16:29:13.564Z,65.70
2024-01-16T16:31:41.585Z,65.56
2024-01-16T16:34:19.413Z,65.49
2024-01-16T16:36:49.389Z,65.51
2024-01-16T16:39:18.077Z,65.53
2024-01-16T16:41:46.130Z,65.42
2024-01-16T16:44:15.228Z,65.32
2024-01-16T16:46:41.957Z,65.37
2024-01-16T16:49:08.667Z,65.39
2024-01-16T16:51:42.611Z,65.40
2024-01-16T16:54:10.969Z,65.45
2024-01-16T16:59:05.343Z,65.49
2024-01-16T17:01:32.026Z,65.60
2024-01-16T17:03:58.877Z,65.67
2024-01-16T17:06:25.801Z,65.55
2024-01-16T17:08:52.628Z,65.57
2024-01-16T17:11:19.479Z,65.49
2024-01-16T17:13:47.122Z,65.40
2024-01-16T17:16:14.887Z,65.52
2024-01-16T17:18:42.214Z,65.44
2024-01-16T17:21:09.467Z,65.37
2024-01-16T17:23:37.206Z,65.73
2024-01-16T17:26:06.302Z,65.77
2024-01-16T17:28:33.050Z,65.77
2024-01-16T17:31:00.584Z,65.76
2024-01-16T17:33:27.517Z,65.61
2024-01-16T17:36:08.966Z,65.59
2024-01-16T17:38:35.753Z,65.50
2024-01-16T17:41:03.093Z,65.37
2024-01-16T17:43:29.727Z,65.26
2024-01-16T17:45:56.606Z,65.19
2024-01-16T17:48:25.197Z,65.19
2024-01-16T17:50:53.142Z,65.10
2024-01-16T17:53:20.678Z,65.06
2024-01-16T17:55:49.075Z,65.14
2024-01-16T17:58:22.712Z,65.32
2024-01-16T18:00:50.894Z,65.32
2024-01-16T18:03:32.429Z,65.38
2024-01-16T18:06:08.686Z,65.52
2024-01-16T18:08:38.430Z,65.50
2024-01-16T18:11:05.883Z,65.22
2024-01-16T18:13:34.039Z,65.19
2024-01-16T18:16:06.174Z,65.27
2024-01-16T18:18:34.979Z,65.54
2024-01-16T18:21:02.321Z,65.44
2024-01-16T18:23:29.166Z,65.60
2024-01-16T18:25:58.765Z,65.84
2024-01-16T18:28:27.271Z,65.84
2024-01-16T18:30:57.724Z,65.78
2024-01-16T18:33:24.794Z,65.90
2024-01-16T18:35:58.943Z,65.95
2024-01-16T18:38:27.130Z,65.85
2024-01-16T18:40:53.826Z,65.72
2024-01-16T18:43:20.985Z,65.66
2024-01-16T18:45:47.618Z,65.61
2024-01-16T18:48:15.854Z,65.66
2024-01-16T18:50:43.566Z,65.55
2024-01-16T18:53:10.398Z,65.65
2024-01-16T18:55:37.896Z,65.63
2024-01-16T18:58:13.675Z,65.70
2024-01-16T19:00:42.609Z,65.55
2024-01-16T19:03:10.048Z,65.79
2024-01-16T19:05:37.622Z,65.84
2024-01-16T19:08:05.480Z,65.79
2024-01-16T19:10:32.694Z,65.37
2024-01-16T19:13:00.537Z,65.28
2024-01-16T19:15:27.286Z,65.33
2024-01-16T19:17:54.261Z,65.47
2024-01-16T19:20:24.211Z,65.54
2024-01-16T19:22:52.925Z,65.51
2024-01-16T19:25:19.573Z,65.55
2024-01-16T19:27:49.154Z,65.50
2024-01-16T19:30:21.234Z,65.60
2024-01-16T19:32:48.603Z,65.50
2024-01-16T19:35:16.127Z,65.32
2024-01-16T19:37:42.918Z,65.20
2024-01-16T19:40:16.584Z,65.09
2024-01-16T19:42:44.322Z,65.20
2024-01-16T19:45:19.188Z,65.21
2024-01-16T19:47:48.101Z,65.34
2024-01-16T19:50:22.340Z,65.46
2024-01-16T19:52:58.644Z,65.52
2024-01-16T19:55:25.826Z,65.63
2024-01-16T19:57:54.065Z,65.67
2024-01-16T20:00:21.285Z,65.65
2024-01-16T20:02:48.470Z,65.51
2024-01-16T20:05:18.716Z,65.53
2024-01-16T20:07:47.176Z,65.40
2024-01-16T20:10:16.898Z,65.41
2024-01-16T20:12:47.064Z,65.46
2024-01-16T20:15:22.393Z,65.43
2024-01-16T20:17:54.605Z,65.23
2024-01-16T20:20:21.880Z,65.33
2024-01-16T20:22:48.833Z,65.30
2024-01-16T20:25:15.793Z,65.35
2024-01-16T20:27:45.324Z,65.23
2024-01-16T20:30:14.119Z,65.25
2024-01-16T20:32:44.487Z,65.23
2024-01-16T20:35:14.131Z,65.31
2024-01-16T20:37:42.605Z,65.39
2024-01-16T20:40:10.455Z,65.20
2024-01-16T20:42:38.503Z,65.36
2024-01-16T20:45:12.261Z,65.39
2024-01-16T20:47:41.120Z,65.48
2024-01-16T20:50:11.211Z,65.56
2024-01-16T20:52:38.170Z,65.67
2024-01-16T20:55:07.789Z,65.81
2024-01-16T20:57:36.753Z,65.85
2024-01-16T21:00:15.951Z,65.82
2024-01-16T21:02:44.304Z,65.84
2024-01-16T21:05:14.812Z,65.85
2024-01-16T21:07:46.678Z,65.84
2024-01-16T21:10:13.519Z,65.86
2024-01-16T21:12:41.616Z,65.88
2024-01-16T21:15:15.618Z,65.89
2024-01-16T21:17:42.407Z,65.86
2024-01-16T21:20:17.473Z,65.85
2024-01-16T21:22:44.430Z,65.68
2024-01-16T21:25:12.503Z,65.88
2024-01-16T21:27:39.137Z,65.97
2024-01-16T21:30:09.887Z,66.12
2024-01-16T21:32:36.653Z,65.92
2024-01-16T21:35:03.567Z,65.53
2024-01-16T21:37:30.388Z,65.55
2024-01-16T21:39:57.025Z,65.45
2024-01-16T21:42:24.158Z,65.55
2024-01-16T21:44:53.164Z,65.74
2024-01-16T21:47:25.407Z,65.85
2024-01-16T21:49:52.876Z,66.02
2024-01-16T21:52:21.067Z,66.07
2024-01-16T21:54:48.245Z,66.11
2024-01-16T21:57:14.884Z,66.09
2024-01-16T21:59:41.640Z,65.87
2024-01-16T22:02:11.639Z,65.59
2024-01-16T22:04:38.888Z,65.42
2024-01-16T22:07:05.670Z,65.34
2024-01-16T22:09:32.562Z,65.38
2024-01-16T22:12:01.987Z,65.49
2024-01-16T22:14:28.852Z,65.60
2024-01-16T22:16:55.780Z,65.71
2024-01-16T22:19:23.448Z,65.85
2024-01-16T22:21:50.202Z,65.83
2024-01-16T22:24:17.522Z,65.89
2024-01-16T22:26:44.328Z,65.96
2024-01-16T22:29:11.286Z,65.94
2024-01-16T22:31:47.001Z,66.01
2024-01-16T22:34:13.965Z,66.09
2024-01-16T22:44:19.551Z,66.04
2024-01-16T22:46:46.395Z,66.08
2024-01-16T22:49:13.201Z,66.11
2024-01-16T22:51:40.182Z,66.16
2024-01-16T22:54:08.398Z,66.26
2024-01-16T22:56:35.296Z,66.28
2024-01-16T22:59:04.268Z,66.19
2024-01-16T23:01:32.240Z,66.17
2024-01-16T23:03:59.790Z,66.18
2024-01-16T23:06:29.471Z,66.27
2024-01-16T23:08:57.013Z,66.45
2024-01-16T23:11:25.084Z,66.52
2024-01-16T23:13:53.227Z,66.45
2024-01-16T23:16:20.632Z,66.48
2024-01-16T23:18:48.557Z,66.55
2024-01-16T23:21:16.227Z,66.69
2024-01-16T23:23:44.808Z,66.74
2024-01-16T23:26:15.985Z,66.67
2024-01-16T23:28:42.664Z,66.78
2024-01-16T23:31:12.591Z,66.69
2024-01-16T23:33:39.494Z,66.72
2024-01-16T23:36:06.646Z,66.77
2024-01-16T23:38:34.662Z,66.85
2024-01-16T23:41:01.763Z,66.86
2024-01-16T23:43:34.424Z,66.69
2024-01-16T23:46:03.013Z,66.61
2024-01-16T23:48:29.892Z,66.55
2024-01-16T23:50:57.593Z,66.58
2024-01-16T23:53:24.417Z,66.96
2024-01-16T23:55:52.329Z,66.89
2024-01-16T23:58:19.075Z,67.03
